sensor_id;sensor_type;location;lat;lon;timestamp;pressure;altitude;pressure_sealevel;temperature;humidity
53916;BME280;39827;49.652;18.770;2023-06-14T00:01:49;74420.34;;;-149.71;83.47
53916;BME280;39827;49.652;18.770;2023-06-14T00:04:15;74420.34;;;-149.71;83.63
53916;BME280;39827;49.652;18.770;2023-06-14T00:06:46;74416.31;;;-149.71;83.93
53916;BME280;39827;49.652;18.770;2023-06-14T00:09:12;74420.34;;;-149.71;83.46
53916;BME280;39827;49.652;18.770;2023-06-14T00:11:43;74428.38;;;-149.71;83.81
53916;BME280;39827;49.652;18.770;2023-06-14T00:14:08;74428.38;;;-149.71;83.70
53916;BME280;39827;49.652;18.770;2023-06-14T00:16:34;74426.38;;;-149.71;83.60
53916;BME280;39827;49.652;18.770;2023-06-14T00:19:01;74432.38;;;-149.71;83.77
53916;BME280;39827;49.652;18.770;2023-06-14T00:21:29;74418.31;;;-149.71;83.26
53916;BME280;39827;49.652;18.770;2023-06-14T00:23:55;74412.28;;;-149.71;83.19
53916;BME280;39827;49.652;18.770;2023-06-14T00:26:20;74412.28;;;-149.71;83.20
53916;BME280;39827;49.652;18.770;2023-06-14T00:28:46;74436.41;;;-149.71;83.65
53916;BME280;39827;49.652;18.770;2023-06-14T00:31:11;74434.41;;;-149.71;83.40
53916;BME280;39827;49.652;18.770;2023-06-14T00:33:37;74442.44;;;-149.71;83.95
53916;BME280;39827;49.652;18.770;2023-06-14T00:36:02;74450.47;;;-149.71;84.26
53916;BME280;39827;49.652;18.770;2023-06-14T00:38:27;74452.47;;;-149.71;84.21
53916;BME280;39827;49.652;18.770;2023-06-14T00:40:53;74450.47;;;-149.71;84.35
53916;BME280;39827;49.652;18.770;2023-06-14T00:43:18;74454.50;;;-149.71;84.67
53916;BME280;39827;49.652;18.770;2023-06-14T00:45:44;74470.56;;;-149.71;84.75
53916;BME280;39827;49.652;18.770;2023-06-14T00:48:10;74466.53;;;-149.71;84.98
53916;BME280;39827;49.652;18.770;2023-06-14T00:50:36;74454.50;;;-149.71;85.26
53916;BME280;39827;49.652;18.770;2023-06-14T00:53:02;74436.41;;;-149.71;84.69
53916;BME280;39827;49.652;18.770;2023-06-14T00:55:28;74450.47;;;-149.71;84.06
53916;BME280;39827;49.652;18.770;2023-06-14T00:57:56;74452.47;;;-149.71;84.36
53916;BME280;39827;49.652;18.770;2023-06-14T01:00:22;74474.59;;;-149.71;85.31
53916;BME280;39827;49.652;18.770;2023-06-14T01:02:47;74472.56;;;-149.71;85.17
53916;BME280;39827;49.652;18.770;2023-06-14T01:05:14;74480.59;;;-149.71;85.05
53916;BME280;39827;49.652;18.770;2023-06-14T01:08:10;74478.59;;;-149.71;85.14
53916;BME280;39827;49.652;18.770;2023-06-14T01:10:53;74468.56;;;-149.71;84.89
53916;BME280;39827;49.652;18.770;2023-06-14T01:13:27;74468.56;;;-149.71;85.09
53916;BME280;39827;49.652;18.770;2023-06-14T01:15:54;74474.59;;;-149.71;85.13
53916;BME280;39827;49.652;18.770;2023-06-14T01:18:21;74480.59;;;-149.71;85.45
53916;BME280;39827;49.652;18.770;2023-06-14T01:20:49;74478.59;;;-149.71;85.37
53916;BME280;39827;49.652;18.770;2023-06-14T01:23:18;74478.59;;;-149.71;85.39
53916;BME280;39827;49.652;18.770;2023-06-14T01:25:44;74486.63;;;-149.71;85.46
53916;BME280;39827;49.652;18.770;2023-06-14T01:28:10;74486.63;;;-149.71;85.59
53916;BME280;39827;49.652;18.770;2023-06-14T01:30:37;74490.66;;;-149.71;86.30
53916;BME280;39827;49.652;18.770;2023-06-14T01:33:04;74478.59;;;-149.71;86.51
53916;BME280;39827;49.652;18.770;2023-06-14T01:35:31;74478.59;;;-149.71;85.87
53916;BME280;39827;49.652;18.770;2023-06-14T01:37:57;74482.63;;;-149.71;86.14
53916;BME280;39827;49.652;18.770;2023-06-14T01:40:24;74476.59;;;-149.71;85.98
53916;BME280;39827;49.652;18.770;2023-06-14T01:42:50;74486.63;;;-149.71;85.73
53916;BME280;39827;49.652;18.770;2023-06-14T01:45:17;74500.69;;;-149.71;86.18
53916;BME280;39827;49.652;18.770;2023-06-14T01:47:44;74498.69;;;-149.71;86.03
53916;BME280;39827;49.652;18.770;2023-06-14T01:50:10;74506.72;;;-149.71;85.81
53916;BME280;39827;49.652;18.770;2023-06-14T01:52:37;74510.75;;;-149.71;85.79
53916;BME280;39827;49.652;18.770;2023-06-14T01:55:06;74512.75;;;-149.71;86.51
53916;BME280;39827;49.652;18.770;2023-06-14T01:57:33;74502.72;;;-149.71;86.09
53916;BME280;39827;49.652;18.770;2023-06-14T01:59:58;74518.78;;;-149.71;86.09
53916;BME280;39827;49.652;18.770;2023-06-14T02:02:23;74526.81;;;-149.71;85.68
53916;BME280;39827;49.652;18.770;2023-06-14T02:04:49;74520.78;;;-149.71;86.36
53916;BME280;39827;49.652;18.770;2023-06-14T02:07:14;74534.88;;;-149.71;86.56
53916;BME280;39827;49.652;18.770;2023-06-14T02:09:41;74526.81;;;-149.71;86.86
53916;BME280;39827;49.652;18.770;2023-06-14T02:12:07;74524.81;;;-149.71;87.13
53916;BME280;39827;49.652;18.770;2023-06-14T02:14:32;74520.78;;;-149.71;87.13
53916;BME280;39827;49.652;18.770;2023-06-14T02:16:59;74508.75;;;-149.71;86.44
53916;BME280;39827;49.652;18.770;2023-06-14T02:19:26;74524.81;;;-149.71;86.19
53916;BME280;39827;49.652;18.770;2023-06-14T02:21:52;74524.81;;;-149.71;86.60
53916;BME280;39827;49.652;18.770;2023-06-14T02:24:17;74528.84;;;-149.71;86.06
53916;BME280;39827;49.652;18.770;2023-06-14T02:26:43;74516.78;;;-149.71;85.97
53916;BME280;39827;49.652;18.770;2023-06-14T02:29:08;74516.78;;;-149.71;86.08
53916;BME280;39827;49.652;18.770;2023-06-14T02:31:37;74512.75;;;-149.71;85.87
53916;BME280;39827;49.652;18.770;2023-06-14T02:34:03;74528.84;;;-149.71;85.87
53916;BME280;39827;49.652;18.770;2023-06-14T02:36:28;74526.81;;;-149.71;86.04
53916;BME280;39827;49.652;18.770;2023-06-14T02:38:55;74516.78;;;-149.71;86.00
53916;BME280;39827;49.652;18.770;2023-06-14T02:41:23;74524.81;;;-149.71;86.28
53916;BME280;39827;49.652;18.770;2023-06-14T02:43:48;74532.84;;;-149.71;86.29
53916;BME280;39827;49.652;18.770;2023-06-14T02:46:14;74518.78;;;-149.71;85.91
53916;BME280;39827;49.652;18.770;2023-06-14T02:48:40;74510.75;;;-149.71;85.52
53916;BME280;39827;49.652;18.770;2023-06-14T02:51:05;74510.75;;;-149.71;84.78
53916;BME280;39827;49.652;18.770;2023-06-14T02:53:31;74526.81;;;-149.71;84.99
53916;BME280;39827;49.652;18.770;2023-06-14T02:55:56;74528.84;;;-149.71;85.04
53916;BME280;39827;49.652;18.770;2023-06-14T02:58:21;74524.81;;;-149.71;85.15
53916;BME280;39827;49.652;18.770;2023-06-14T03:00:50;74514.78;;;-149.71;85.12
53916;BME280;39827;49.652;18.770;2023-06-14T03:03:17;74518.78;;;-149.71;85.25
53916;BME280;39827;49.652;18.770;2023-06-14T03:05:45;74522.81;;;-149.71;85.52
53916;BME280;39827;49.652;18.770;2023-06-14T03:08:13;74510.75;;;-149.71;85.82
53916;BME280;39827;49.652;18.770;2023-06-14T03:10:48;74512.75;;;-149.71;85.53
53916;BME280;39827;49.652;18.770;2023-06-14T03:13:15;74502.72;;;-149.71;85.62
53916;BME280;39827;49.652;18.770;2023-06-14T03:15:43;74492.66;;;-149.71;85.50
53916;BME280;39827;49.652;18.770;2023-06-14T03:18:10;74528.84;;;-149.71;86.36
53916;BME280;39827;49.652;18.770;2023-06-14T03:20:37;74532.84;;;-149.71;86.95
53916;BME280;39827;49.652;18.770;2023-06-14T03:23:03;74524.81;;;-149.71;86.96
53916;BME280;39827;49.652;18.770;2023-06-14T03:25:30;74512.75;;;-149.71;87.17
53916;BME280;39827;49.652;18.770;2023-06-14T03:27:56;74504.72;;;-149.71;86.72
53916;BME280;39827;49.652;18.770;2023-06-14T03:30:22;74482.63;;;-149.71;86.23
53916;BME280;39827;49.652;18.770;2023-06-14T03:32:47;74492.66;;;-149.71;86.22
53916;BME280;39827;49.652;18.770;2023-06-14T03:35:13;74464.53;;;-149.71;86.11
53916;BME280;39827;49.652;18.770;2023-06-14T03:37:46;74468.56;;;-149.71;85.42
53916;BME280;39827;49.652;18.770;2023-06-14T03:40:12;74480.59;;;-149.71;85.09
53916;BME280;39827;49.652;18.770;2023-06-14T03:42:39;74496.69;;;-149.71;85.02
53916;BME280;39827;49.652;18.770;2023-06-14T03:45:05;74506.72;;;-149.71;85.40
53916;BME280;39827;49.652;18.770;2023-06-14T03:47:31;74478.59;;;-149.71;85.25
53916;BME280;39827;49.652;18.770;2023-06-14T03:49:57;74462.53;;;-149.71;84.89
53916;BME280;39827;49.652;18.770;2023-06-14T03:52:22;74460.53;;;-149.71;84.78
53916;BME280;39827;49.652;18.770;2023-06-14T03:54:48;74432.38;;;-149.71;84.59
53916;BME280;39827;49.652;18.770;2023-06-14T03:57:14;74438.41;;;-149.71;84.29
53916;BME280;39827;49.652;18.770;2023-06-14T03:59:40;74412.28;;;-149.71;84.30
53916;BME280;39827;49.652;18.770;2023-06-14T04:02:06;74408.28;;;-149.71;83.84
53916;BME280;39827;49.652;18.770;2023-06-14T04:04:32;74408.28;;;-149.71;83.86
53916;BME280;39827;49.652;18.770;2023-06-14T04:06:58;74396.22;;;-149.71;83.23
53916;BME280;39827;49.652;18.770;2023-06-14T04:09:25;74414.31;;;-149.71;83.50
53916;BME280;39827;49.652;18.770;2023-06-14T04:11:52;74420.34;;;-149.71;83.89
53916;BME280;39827;49.652;18.770;2023-06-14T04:14:19;74416.31;;;-149.71;84.19
53916;BME280;39827;49.652;18.770;2023-06-14T04:16:46;74402.25;;;-149.71;84.07
53916;BME280;39827;49.652;18.770;2023-06-14T04:19:11;74400.25;;;-149.71;84.16
53916;BME280;39827;49.652;18.770;2023-06-14T04:21:37;74376.13;;;-149.71;83.82
53916;BME280;39827;49.652;18.770;2023-06-14T04:24:02;74364.06;;;-149.71;83.39
53916;BME280;39827;49.652;18.770;2023-06-14T04:26:28;74376.13;;;-149.71;82.84
53916;BME280;39827;49.652;18.770;2023-06-14T04:28:55;74382.16;;;-149.71;83.55
53916;BME280;39827;49.652;18.770;2023-06-14T04:31:22;74386.19;;;-149.71;83.63
53916;BME280;39827;49.652;18.770;2023-06-14T04:33:50;74374.13;;;-149.71;83.82
53916;BME280;39827;49.652;18.770;2023-06-14T04:36:16;74343.97;;;-149.71;83.62
53916;BME280;39827;49.652;18.770;2023-06-14T04:38:42;74333.94;;;-149.71;83.33
53916;BME280;39827;49.652;18.770;2023-06-14T04:41:10;74335.94;;;-149.71;83.70
53916;BME280;39827;49.652;18.770;2023-06-14T04:43:37;74307.81;;;-149.71;82.74
53916;BME280;39827;49.652;18.770;2023-06-14T04:46:04;74283.72;;;-149.71;82.73
53916;BME280;39827;49.652;18.770;2023-06-14T04:48:31;74267.63;;;-149.71;82.19
53916;BME280;39827;49.652;18.770;2023-06-14T04:50:56;74237.50;;;-149.71;81.95
53916;BME280;39827;49.652;18.770;2023-06-14T04:53:22;74209.38;;;-149.71;81.17
53916;BME280;39827;49.652;18.770;2023-06-14T04:55:48;74171.19;;;-149.71;79.84
53916;BME280;39827;49.652;18.770;2023-06-14T04:58:15;74149.09;;;-149.71;80.25
53916;BME280;39827;49.652;18.770;2023-06-14T05:00:41;74110.94;;;-149.71;79.22
53916;BME280;39827;49.652;18.770;2023-06-14T05:03:08;74074.75;;;-149.71;78.64
53916;BME280;39827;49.652;18.770;2023-06-14T05:05:34;74044.63;;;-149.71;76.81
53916;BME280;39827;49.652;18.770;2023-06-14T05:07:59;74012.47;;;-149.71;75.62
53916;BME280;39827;49.652;18.770;2023-06-14T05:10:25;73996.41;;;-149.71;74.73
53916;BME280;39827;49.652;18.770;2023-06-14T05:12:51;73962.25;;;-149.71;73.57
53916;BME280;39827;49.652;18.770;2023-06-14T05:15:18;73942.16;;;-149.71;72.89
53916;BME280;39827;49.652;18.770;2023-06-14T05:17:45;73910.03;;;-149.71;71.86
53916;BME280;39827;49.652;18.770;2023-06-14T05:20:12;73875.88;;;-149.71;69.76
53916;BME280;39827;49.652;18.770;2023-06-14T05:22:37;73833.69;;;-149.71;69.23
53916;BME280;39827;49.652;18.770;2023-06-14T05:25:03;73795.50;;;-149.71;67.30
53916;BME280;39827;49.652;18.770;2023-06-14T05:27:29;73761.38;;;-149.71;66.26
53916;BME280;39827;49.652;18.770;2023-06-14T05:29:55;73729.22;;;-149.71;65.97
53916;BME280;39827;49.652;18.770;2023-06-14T05:32:23;73699.09;;;-149.71;64.08
53916;BME280;39827;49.652;18.770;2023-06-14T05:34:49;73664.94;;;-149.71;63.06
53916;BME280;39827;49.652;18.770;2023-06-14T05:37:15;73616.72;;;-149.71;62.37
53916;BME280;39827;49.652;18.770;2023-06-14T05:39:41;73600.66;;;-149.71;60.53
53916;BME280;39827;49.652;18.770;2023-06-14T05:42:06;73546.41;;;-149.71;60.53
53916;BME280;39827;49.652;18.770;2023-06-14T05:44:32;73538.38;;;-149.71;60.05
53916;BME280;39827;49.652;18.770;2023-06-14T05:46:57;73490.19;;;-149.71;58.64
53916;BME280;39827;49.652;18.770;2023-06-14T05:49:22;73478.13;;;-149.71;58.04
53916;BME280;39827;49.652;18.770;2023-06-14T05:51:48;73423.88;;;-149.71;56.19
53916;BME280;39827;49.652;18.770;2023-06-14T05:54:13;73445.97;;;-149.71;55.04
53916;BME280;39827;49.652;18.770;2023-06-14T05:56:39;73399.78;;;-149.71;55.44
53916;BME280;39827;49.652;18.770;2023-06-14T05:59:04;73391.75;;;-149.71;54.88
53916;BME280;39827;49.652;18.770;2023-06-14T06:01:30;73391.75;;;-149.71;53.58
53916;BME280;39827;49.652;18.770;2023-06-14T06:03:55;73339.53;;;-149.71;53.89
53916;BME280;39827;49.652;18.770;2023-06-14T06:06:21;73353.59;;;-149.71;54.31
53916;BME280;39827;49.652;18.770;2023-06-14T06:08:46;73319.44;;;-149.71;53.38
53916;BME280;39827;49.652;18.770;2023-06-14T06:11:12;73309.38;;;-149.71;52.32
53916;BME280;39827;49.652;18.770;2023-06-14T06:13:38;73299.34;;;-149.71;51.58
53916;BME280;39827;49.652;18.770;2023-06-14T06:16:04;73243.09;;;-149.71;50.34
53916;BME280;39827;49.652;18.770;2023-06-14T06:18:30;73277.25;;;-149.71;52.73
53916;BME280;39827;49.652;18.770;2023-06-14T06:20:55;73239.09;;;-149.71;51.83
53916;BME280;39827;49.652;18.770;2023-06-14T06:23:21;73245.13;;;-149.71;51.84
53916;BME280;39827;49.652;18.770;2023-06-14T06:25:46;73247.13;;;-149.71;50.34
53916;BME280;39827;49.652;18.770;2023-06-14T06:28:12;73225.03;;;-149.71;50.78
53916;BME280;39827;49.652;18.770;2023-06-14T06:30:37;73215.00;;;-149.71;51.45
53916;BME280;39827;49.652;18.770;2023-06-14T06:33:02;73184.84;;;-149.71;49.47
53916;BME280;39827;49.652;18.770;2023-06-14T06:35:28;73198.91;;;-149.71;50.00
53916;BME280;39827;49.652;18.770;2023-06-14T06:37:55;73138.66;;;-149.71;48.53
53916;BME280;39827;49.652;18.770;2023-06-14T06:40:21;73168.78;;;-149.71;49.49
53916;BME280;39827;49.652;18.770;2023-06-14T06:42:46;73202.94;;;-149.71;49.98
53916;BME280;39827;49.652;18.770;2023-06-14T06:45:12;73146.69;;;-149.71;49.37
53916;BME280;39827;49.652;18.770;2023-06-14T06:47:37;73130.63;;;-149.71;48.92
53916;BME280;39827;49.652;18.770;2023-06-14T06:50:03;73106.53;;;-149.71;47.73
53916;BME280;39827;49.652;18.770;2023-06-14T06:52:28;73132.63;;;-149.71;49.18
53916;BME280;39827;49.652;18.770;2023-06-14T06:54:54;73118.56;;;-149.71;49.09
53916;BME280;39827;49.652;18.770;2023-06-14T06:57:21;73142.69;;;-149.71;49.78
53916;BME280;39827;49.652;18.770;2023-06-14T06:59:49;73134.63;;;-149.71;49.47
53916;BME280;39827;49.652;18.770;2023-06-14T07:02:15;73080.41;;;-149.71;48.57
53916;BME280;39827;49.652;18.770;2023-06-14T07:04:41;73034.22;;;-149.71;48.86
53916;BME280;39827;49.652;18.770;2023-06-14T07:07:06;73006.09;;;-149.71;46.79
53916;BME280;39827;49.652;18.770;2023-06-14T07:09:32;73006.09;;;-149.71;47.07
53916;BME280;39827;49.652;18.770;2023-06-14T07:11:57;72998.06;;;-149.71;46.64
53916;BME280;39827;49.652;18.770;2023-06-14T07:14:23;72961.91;;;-149.71;46.31
53916;BME280;39827;49.652;18.770;2023-06-14T07:16:49;72923.75;;;-149.71;46.66
53916;BME280;39827;49.652;18.770;2023-06-14T07:19:14;72867.50;;;-149.71;44.94
53916;BME280;39827;49.652;18.770;2023-06-14T07:21:40;72845.41;;;-149.71;45.16
53916;BME280;39827;49.652;18.770;2023-06-14T07:24:06;72865.50;;;-149.71;44.68
53916;BME280;39827;49.652;18.770;2023-06-14T07:26:33;72799.22;;;-149.71;44.69
53916;BME280;39827;49.652;18.770;2023-06-14T07:28:58;72700.81;;;-149.71;41.82
53916;BME280;39827;49.652;18.770;2023-06-14T07:31:24;72732.94;;;-149.71;42.82
53916;BME280;39827;49.652;18.770;2023-06-14T07:33:49;72738.97;;;-149.71;43.20
53916;BME280;39827;49.652;18.770;2023-06-14T07:36:15;72783.16;;;-149.71;43.13
53916;BME280;39827;49.652;18.770;2023-06-14T07:38:40;72813.28;;;-149.71;42.45
53916;BME280;39827;49.652;18.770;2023-06-14T07:41:07;72863.50;;;-149.71;45.56
53916;BME280;39827;49.652;18.770;2023-06-14T07:43:32;72977.97;;;-149.71;46.35
53916;BME280;39827;49.652;18.770;2023-06-14T07:45:58;73052.28;;;-149.71;46.69
53916;BME280;39827;49.652;18.770;2023-06-14T07:48:23;73026.19;;;-149.71;46.58
53916;BME280;39827;49.652;18.770;2023-06-14T07:50:49;72988.03;;;-149.71;47.17
53916;BME280;39827;49.652;18.770;2023-06-14T07:53:14;72923.75;;;-149.71;46.65
53916;BME280;39827;49.652;18.770;2023-06-14T07:55:40;72917.72;;;-149.71;47.02
53916;BME280;39827;49.652;18.770;2023-06-14T07:58:08;72905.66;;;-149.71;47.19
53916;BME280;39827;49.652;18.770;2023-06-14T08:00:34;72895.63;;;-149.71;46.54
53916;BME280;39827;49.652;18.770;2023-06-14T08:03:00;72913.69;;;-149.71;46.05
53916;BME280;39827;49.652;18.770;2023-06-14T08:05:26;72951.88;;;-149.71;46.79
53916;BME280;39827;49.652;18.770;2023-06-14T08:07:52;72977.97;;;-149.71;48.16
53916;BME280;39827;49.652;18.770;2023-06-14T08:10:18;73002.06;;;-149.71;47.51
53916;BME280;39827;49.652;18.770;2023-06-14T08:12:43;73042.25;;;-149.71;48.24
53916;BME280;39827;49.652;18.770;2023-06-14T08:15:10;73058.31;;;-149.71;50.29
53916;BME280;39827;49.652;18.770;2023-06-14T08:17:35;73114.56;;;-149.71;50.99
53916;BME280;39827;49.652;18.770;2023-06-14T08:20:02;73158.75;;;-149.71;51.98
53916;BME280;39827;49.652;18.770;2023-06-14T08:22:29;73174.81;;;-149.71;53.77
53916;BME280;39827;49.652;18.770;2023-06-14T08:24:57;73162.75;;;-149.71;53.22
53916;BME280;39827;49.652;18.770;2023-06-14T08:27:23;73206.94;;;-149.71;53.59
53916;BME280;39827;49.652;18.770;2023-06-14T08:29:48;73190.88;;;-149.71;53.78
53916;BME280;39827;49.652;18.770;2023-06-14T08:32:14;73150.72;;;-149.71;51.86
53916;BME280;39827;49.652;18.770;2023-06-14T08:34:39;73130.63;;;-149.71;52.07
53916;BME280;39827;49.652;18.770;2023-06-14T08:37:05;73138.66;;;-149.71;51.60
53916;BME280;39827;49.652;18.770;2023-06-14T08:39:31;73112.53;;;-149.71;51.49
53916;BME280;39827;49.652;18.770;2023-06-14T08:41:57;73132.63;;;-149.71;52.55
53916;BME280;39827;49.652;18.770;2023-06-14T08:44:23;73142.69;;;-149.71;51.72
53916;BME280;39827;49.652;18.770;2023-06-14T08:46:48;73132.63;;;-149.71;51.07
53916;BME280;39827;49.652;18.770;2023-06-14T08:49:16;73126.59;;;-149.71;51.46
53916;BME280;39827;49.652;18.770;2023-06-14T08:51:43;73098.50;;;-149.71;50.58
53916;BME280;39827;49.652;18.770;2023-06-14T08:54:10;73076.38;;;-149.71;50.41
53916;BME280;39827;49.652;18.770;2023-06-14T08:56:37;73064.34;;;-149.71;49.30
53916;BME280;39827;49.652;18.770;2023-06-14T08:59:04;73058.31;;;-149.71;48.37
53916;BME280;39827;49.652;18.770;2023-06-14T09:01:38;73034.22;;;-149.71;48.34
53916;BME280;39827;49.652;18.770;2023-06-14T09:04:04;72984.00;;;-149.71;48.10
53916;BME280;39827;49.652;18.770;2023-06-14T09:06:33;72982.00;;;-149.71;46.89
53916;BME280;39827;49.652;18.770;2023-06-14T09:08:58;72994.03;;;-149.71;47.67
53916;BME280;39827;49.652;18.770;2023-06-14T09:11:24;73030.19;;;-149.71;47.98
53916;BME280;39827;49.652;18.770;2023-06-14T09:13:51;73034.22;;;-149.71;48.23
53916;BME280;39827;49.652;18.770;2023-06-14T09:16:17;73062.34;;;-149.71;48.53
53916;BME280;39827;49.652;18.770;2023-06-14T09:18:44;73050.28;;;-149.71;47.42
53916;BME280;39827;49.652;18.770;2023-06-14T09:21:11;73054.28;;;-149.71;47.99
53916;BME280;39827;49.652;18.770;2023-06-14T09:23:38;73062.34;;;-149.71;47.78
53916;BME280;39827;49.652;18.770;2023-06-14T09:26:11;73078.41;;;-149.71;48.52
53916;BME280;39827;49.652;18.770;2023-06-14T09:28:48;73088.44;;;-149.71;48.82
53916;BME280;39827;49.652;18.770;2023-06-14T09:31:16;73084.44;;;-149.71;49.05
53916;BME280;39827;49.652;18.770;2023-06-14T09:33:42;73086.44;;;-149.71;48.04
53916;BME280;39827;49.652;18.770;2023-06-14T09:36:18;73076.38;;;-149.71;47.17
53916;BME280;39827;49.652;18.770;2023-06-14T09:41:18;73080.41;;;-149.71;48.76
53916;BME280;39827;49.652;18.770;2023-06-14T09:43:44;73084.44;;;-149.71;50.28
53916;BME280;39827;49.652;18.770;2023-06-14T09:46:12;73082.41;;;-149.71;50.28
53916;BME280;39827;49.652;18.770;2023-06-14T09:48:38;73092.47;;;-149.71;50.05
53916;BME280;39827;49.652;18.770;2023-06-14T09:51:10;73088.44;;;-149.71;49.77
53916;BME280;39827;49.652;18.770;2023-06-14T09:53:37;73034.22;;;-149.71;49.77
53916;BME280;39827;49.652;18.770;2023-06-14T09:56:05;72996.06;;;-149.71;49.29
53916;BME280;39827;49.652;18.770;2023-06-14T09:58:32;72911.69;;;-149.71;47.95
53916;BME280;39827;49.652;18.770;2023-06-14T10:01:00;72903.66;;;-149.71;46.21
53916;BME280;39827;49.652;18.770;2023-06-14T10:03:30;72891.59;;;-149.71;45.29
53916;BME280;39827;49.652;18.770;2023-06-14T10:05:58;72925.75;;;-149.71;46.56
53916;BME280;39827;49.652;18.770;2023-06-14T10:08:27;72937.81;;;-149.71;46.68
53916;BME280;39827;49.652;18.770;2023-06-14T10:10:55;72807.25;;;-149.71;45.10
53916;BME280;39827;49.652;18.770;2023-06-14T10:13:21;72755.03;;;-149.71;45.52
53916;BME280;39827;49.652;18.770;2023-06-14T10:16:11;72734.94;;;-149.71;43.83
53916;BME280;39827;49.652;18.770;2023-06-14T10:23:48;72479.91;;;-149.71;40.79
53916;BME280;39827;49.652;18.770;2023-06-14T10:26:22;72469.84;;;-149.71;39.85
53916;BME280;39827;49.652;18.770;2023-06-14T10:29:01;72493.97;;;-149.71;39.10
53916;BME280;39827;49.652;18.770;2023-06-14T10:34:21;72453.78;;;-149.71;39.91
53916;BME280;39827;49.652;18.770;2023-06-14T10:39:39;72524.09;;;-149.71;41.25
53916;BME280;39827;49.652;18.770;2023-06-14T10:42:05;72429.69;;;-149.71;38.24
53916;BME280;39827;49.652;18.770;2023-06-14T10:44:37;72463.84;;;-149.71;39.05
53916;BME280;39827;49.652;18.770;2023-06-14T10:47:07;72445.75;;;-149.71;39.17
53916;BME280;39827;49.652;18.770;2023-06-14T10:49:43;72385.50;;;-149.71;38.85
53916;BME280;39827;49.652;18.770;2023-06-14T10:52:14;72429.69;;;-149.71;38.95
53916;BME280;39827;49.652;18.770;2023-06-14T10:57:24;72335.31;;;-149.71;40.05
53916;BME280;39827;49.652;18.770;2023-06-14T10:59:50;72289.13;;;-149.71;38.59
53916;BME280;39827;49.652;18.770;2023-06-14T11:02:40;72299.16;;;-149.71;36.22
53916;BME280;39827;49.652;18.770;2023-06-14T11:05:14;72323.25;;;-149.71;37.53
53916;BME280;39827;49.652;18.770;2023-06-14T11:10:37;72453.78;;;-149.71;37.84
53916;BME280;39827;49.652;18.770;2023-06-14T11:13:03;72493.97;;;-149.71;38.26
53916;BME280;39827;49.652;18.770;2023-06-14T11:15:30;72489.94;;;-149.71;38.45
53916;BME280;39827;49.652;18.770;2023-06-14T11:17:56;72409.63;;;-149.71;39.11
53916;BME280;39827;49.652;18.770;2023-06-14T11:20:25;72325.28;;;-149.71;38.48
53916;BME280;39827;49.652;18.770;2023-06-14T11:22:52;72267.03;;;-149.71;36.47
53916;BME280;39827;49.652;18.770;2023-06-14T11:25:17;72319.25;;;-149.71;37.21
53916;BME280;39827;49.652;18.770;2023-06-14T11:27:44;72263.00;;;-149.71;38.12
53916;BME280;39827;49.652;18.770;2023-06-14T11:30:10;72246.94;;;-149.71;37.64
53916;BME280;39827;49.652;18.770;2023-06-14T11:32:38;72289.13;;;-149.71;36.14
53916;BME280;39827;49.652;18.770;2023-06-14T11:35:05;72323.25;;;-149.71;36.77
53916;BME280;39827;49.652;18.770;2023-06-14T11:37:31;72441.75;;;-149.71;37.84
53916;BME280;39827;49.652;18.770;2023-06-14T11:40:03;72445.75;;;-149.71;39.33
53916;BME280;39827;49.652;18.770;2023-06-14T11:42:33;72351.38;;;-149.71;37.52
53916;BME280;39827;49.652;18.770;2023-06-14T11:45:00;72303.19;;;-149.71;36.31
53916;BME280;39827;49.652;18.770;2023-06-14T11:47:36;72329.28;;;-149.71;36.24
53916;BME280;39827;49.652;18.770;2023-06-14T11:50:03;72387.53;;;-149.71;37.65
53916;BME280;39827;49.652;18.770;2023-06-14T11:52:30;72417.66;;;-149.71;35.93
53916;BME280;39827;49.652;18.770;2023-06-14T11:54:56;72534.13;;;-149.71;38.88
53916;BME280;39827;49.652;18.770;2023-06-14T11:57:22;72574.28;;;-149.71;39.13
53916;BME280;39827;49.652;18.770;2023-06-14T11:59:48;72491.94;;;-149.71;39.10
53916;BME280;39827;49.652;18.770;2023-06-14T12:02:17;72399.56;;;-149.71;38.68
53916;BME280;39827;49.652;18.770;2023-06-14T12:04:44;72435.72;;;-149.71;39.87
53916;BME280;39827;49.652;18.770;2023-06-14T12:12:25;72447.78;;;-149.71;38.94
53916;BME280;39827;49.652;18.770;2023-06-14T12:14:50;72371.47;;;-149.71;38.43
53916;BME280;39827;49.652;18.770;2023-06-14T12:17:17;72349.38;;;-149.71;38.20
53916;BME280;39827;49.652;18.770;2023-06-14T12:19:43;72385.50;;;-149.71;38.00
53916;BME280;39827;49.652;18.770;2023-06-14T12:22:15;72383.50;;;-149.71;37.98
53916;BME280;39827;49.652;18.770;2023-06-14T12:24:44;72385.50;;;-149.71;39.46
53916;BME280;39827;49.652;18.770;2023-06-14T12:27:10;72506.00;;;-149.71;39.02
53916;BME280;39827;49.652;18.770;2023-06-14T12:29:37;72572.28;;;-149.71;39.08
53916;BME280;39827;49.652;18.770;2023-06-14T12:32:03;72532.13;;;-149.71;39.56
53916;BME280;39827;49.652;18.770;2023-06-14T12:34:28;72520.06;;;-149.71;39.49
53916;BME280;39827;49.652;18.770;2023-06-14T12:36:56;72463.84;;;-149.71;38.54
53916;BME280;39827;49.652;18.770;2023-06-14T12:39:22;72427.69;;;-149.71;38.27
53916;BME280;39827;49.652;18.770;2023-06-14T12:41:48;72447.78;;;-149.71;37.56
53916;BME280;39827;49.652;18.770;2023-06-14T12:44:16;72423.66;;;-149.71;36.93
53916;BME280;39827;49.652;18.770;2023-06-14T12:46:42;72403.59;;;-149.71;36.77
53916;BME280;39827;49.652;18.770;2023-06-14T12:49:12;72375.47;;;-149.71;36.31
53916;BME280;39827;49.652;18.770;2023-06-14T12:51:38;72377.47;;;-149.71;37.45
53916;BME280;39827;49.652;18.770;2023-06-14T12:54:04;72445.75;;;-149.71;39.17